Forside
METAR-TAF:

METAR-TAF

Lufthavne :

Farmington Regional Airport

Farmington, Missouri, USA

Breddekreds: 37-46N, længdekreds: 090-26W, højde: 288 m

Aktuelle vejr

Denne rapport blev lavet for 44 minutter siden, kl. 21:56 UTC
Vind stille
Temperatur 13°C
Fugtighed 44%
Tryk 1019 hPa
Sigt: 16.1 km
skyfri

METAR: KFAM 162156Z AUTO 00000KT 10SM CLR 13/01 A3009 RMK AO2 SLP189 T01280011

Tid: 16:40 (22:40 UTC)


TAF: fraværende

Vejrobservationer og prognoser fra mere end 4000 lufthavne (METAR og TAF).

De gule og røde prikker repræsenterer de meteorologiske stationer.

Flyt musen over at se navnet på stationen.

Så klik over at se vejr observationer og prognoser.

At skifte det kort: Klik på de grønne knapper med et sort kors for at zoome ind; på den grønne knap med en bindestreg for at zoome ud; eller på de grønne pile for tilstødende kort.


METAR-TAF: